createdAt,value
2023-03-11T00:00:46.976Z,100.00
2023-03-11T00:03:17.821Z,100.00
2023-03-11T00:05:46.982Z,100.00
2023-03-11T00:08:18.029Z,100.00
2023-03-11T00:10:48.197Z,100.00
2023-03-11T00:13:16.990Z,100.00
2023-03-11T00:15:48.800Z,100.00
2023-03-11T00:18:17.212Z,100.00
2023-03-11T00:20:46.967Z,100.00
2023-03-11T00:23:15.603Z,100.00
2023-03-11T00:25:45.267Z,100.00
2023-03-11T00:28:14.060Z,100.00
2023-03-11T00:30:43.661Z,100.00
2023-03-11T00:33:13.605Z,100.00
2023-03-11T00:35:42.286Z,100.00
2023-03-11T00:38:15.331Z,100.00
2023-03-11T00:40:44.611Z,100.00
2023-03-11T00:43:12.445Z,100.00
2023-03-11T00:45:40.390Z,100.00
2023-03-11T00:48:08.863Z,100.00
2023-03-11T00:50:37.577Z,100.00
2023-03-11T00:53:06.072Z,100.00
2023-03-11T00:55:35.279Z,100.00
2023-03-11T00:58:07.353Z,100.00
2023-03-11T01:00:49.324Z,100.00
2023-03-11T01:03:16.383Z,100.00
2023-03-11T01:05:45.146Z,100.00
2023-03-11T01:08:12.328Z,100.00
2023-03-11T01:10:39.376Z,100.00
2023-03-11T01:13:06.593Z,100.00
2023-03-11T01:15:36.700Z,100.00
2023-03-11T01:18:05.157Z,100.00
2023-03-11T01:20:35.865Z,100.00
2023-03-11T01:23:03.438Z,100.00
2023-03-11T01:25:30.721Z,100.00
2023-03-11T01:27:59.688Z,100.00
2023-03-11T01:30:29.036Z,100.00
2023-03-11T01:32:58.199Z,100.00
2023-03-11T01:35:28.259Z,100.00
2023-03-11T01:37:56.866Z,100.00
2023-03-11T01:40:32.929Z,100.00
2023-03-11T01:43:06.650Z,100.00
2023-03-11T01:45:49.855Z,100.00
2023-03-11T01:48:19.624Z,100.00
2023-03-11T01:50:50.903Z,100.00
2023-03-11T01:53:18.848Z,100.00
2023-03-11T01:55:48.535Z,100.00
2023-03-11T01:58:24.507Z,100.00
2023-03-11T02:00:52.720Z,100.00
2023-03-11T02:03:40.279Z,100.00
2023-03-11T02:06:13.098Z,100.00
2023-03-11T02:08:42.006Z,100.00
2023-03-11T02:11:17.547Z,100.00
2023-03-11T02:13:46.466Z,100.00
2023-03-11T02:16:14.243Z,100.00
2023-03-11T02:18:42.740Z,100.00
2023-03-11T02:21:21.258Z,100.00
2023-03-11T02:24:20.472Z,100.00
2023-03-11T02:27:07.646Z,100.00
2023-03-11T02:29:35.269Z,100.00
2023-03-11T02:32:07.604Z,100.00
2023-03-11T02:34:39.057Z,100.00
2023-03-11T02:37:11.277Z,100.00
2023-03-11T02:39:52.058Z,100.00
2023-03-11T02:42:29.193Z,100.00
2023-03-11T02:45:12.851Z,100.00
2023-03-11T02:47:41.126Z,100.00
2023-03-11T02:50:14.344Z,100.00
2023-03-11T02:52:42.133Z,100.00
2023-03-11T02:55:11.914Z,100.00
2023-03-11T02:57:40.154Z,100.00
2023-03-11T03:00:13.555Z,100.00
2023-03-11T03:02:45.346Z,100.00
2023-03-11T03:05:13.495Z,100.00
2023-03-11T03:07:41.304Z,100.00
2023-03-11T03:10:09.567Z,100.00
2023-03-11T03:12:36.754Z,100.00
2023-03-11T03:15:04.435Z,100.00
2023-03-11T03:17:31.547Z,100.00
2023-03-11T03:19:59.245Z,100.00
2023-03-11T03:22:27.508Z,100.00
2023-03-11T03:24:55.214Z,100.00
2023-03-11T03:27:22.469Z,100.00
2023-03-11T03:29:49.737Z,100.00
2023-03-11T03:32:16.994Z,100.00
2023-03-11T03:34:44.208Z,100.00
2023-03-11T03:37:11.303Z,100.00
2023-03-11T03:39:39.112Z,100.00
2023-03-11T03:42:07.789Z,100.00
2023-03-11T03:44:38.550Z,100.00
2023-03-11T03:47:07.454Z,100.00
2023-03-11T03:49:34.934Z,100.00
2023-03-11T03:52:02.114Z,100.00
2023-03-11T03:54:32.209Z,100.00
2023-03-11T03:56:59.228Z,100.00
2023-03-11T03:59:26.392Z,100.00
2023-03-11T04:01:57.983Z,100.00
2023-03-11T04:04:26.469Z,100.00
2023-03-11T04:06:53.546Z,100.00
2023-03-11T04:09:20.980Z,100.00
2023-03-11T04:11:48.214Z,100.00
2023-03-11T04:14:17.279Z,100.00
2023-03-11T04:16:52.557Z,100.00
2023-03-11T04:19:19.647Z,100.00
2023-03-11T04:21:46.861Z,100.00
2023-03-11T04:24:13.960Z,100.00
2023-03-11T04:26:41.190Z,100.00
2023-03-11T04:29:12.813Z,100.00
2023-03-11T04:31:43.619Z,100.00
2023-03-11T04:34:10.764Z,100.00
2023-03-11T04:36:39.023Z,100.00
2023-03-11T04:39:07.973Z,100.00
2023-03-11T04:41:40.633Z,100.00
2023-03-11T04:44:09.495Z,100.00
2023-03-11T04:46:37.179Z,100.00
2023-03-11T04:49:07.017Z,100.00
2023-03-11T04:51:34.616Z,100.00
2023-03-11T04:54:01.942Z,100.00
2023-03-11T04:56:30.543Z,100.00
2023-03-11T04:58:58.215Z,100.00
2023-03-11T05:01:26.576Z,100.00
2023-03-11T05:03:54.724Z,100.00
2023-03-11T05:06:21.820Z,100.00
2023-03-11T05:08:49.183Z,100.00
2023-03-11T05:11:16.261Z,100.00
2023-03-11T05:13:45.115Z,100.00
2023-03-11T05:16:12.255Z,100.00
2023-03-11T05:18:39.433Z,100.00
2023-03-11T05:21:06.923Z,100.00
2023-03-11T05:23:36.526Z,100.00
2023-03-11T05:26:03.738Z,100.00
2023-03-11T05:28:33.324Z,100.00
2023-03-11T05:31:01.549Z,100.00
2023-03-11T05:33:35.340Z,100.00
2023-03-11T05:36:08.981Z,100.00
2023-03-11T05:38:37.695Z,100.00
2023-03-11T05:41:06.329Z,100.00
2023-03-11T05:43:34.385Z,100.00
2023-03-11T05:46:01.458Z,100.00
2023-03-11T05:48:28.575Z,100.00
2023-03-11T05:50:55.924Z,100.00
2023-03-11T05:53:25.263Z,100.00
2023-03-11T05:55:57.649Z,100.00
2023-03-11T05:58:31.126Z,100.00
2023-03-11T06:01:02.030Z,100.00
2023-03-11T06:03:29.515Z,100.00
2023-03-11T06:05:56.711Z,100.00
2023-03-11T06:08:23.962Z,100.00
2023-03-11T06:10:51.543Z,100.00
2023-03-11T06:13:20.667Z,100.00
2023-03-11T06:15:50.602Z,100.00
2023-03-11T06:18:18.688Z,100.00
2023-03-11T06:20:46.030Z,100.00
2023-03-11T06:23:13.095Z,100.00
2023-03-11T06:25:40.252Z,100.00
2023-03-11T06:28:07.877Z,100.00
2023-03-11T06:30:35.390Z,100.00
2023-03-11T06:33:10.282Z,100.00
2023-03-11T06:35:37.340Z,100.00
2023-03-11T06:38:04.501Z,100.00
2023-03-11T06:40:31.771Z,100.00
2023-03-11T06:42:59.336Z,100.00
2023-03-11T06:45:29.431Z,100.00
2023-03-11T06:47:57.146Z,100.00
2023-03-11T06:50:24.361Z,100.00
2023-03-11T06:52:54.113Z,100.00
2023-03-11T06:55:21.316Z,100.00
2023-03-11T06:57:48.916Z,100.00
2023-03-11T07:00:17.294Z,100.00
2023-03-11T07:02:49.390Z,100.00
2023-03-11T07:05:18.066Z,100.00
2023-03-11T07:07:46.318Z,100.00
2023-03-11T07:10:13.620Z,100.00
2023-03-11T07:12:40.808Z,100.00
2023-03-11T07:15:09.203Z,100.00
2023-03-11T07:17:36.626Z,100.00
2023-03-11T07:20:04.918Z,100.00
2023-03-11T07:22:31.936Z,100.00
2023-03-11T07:24:59.033Z,100.00
2023-03-11T07:27:27.848Z,100.00
2023-03-11T07:29:54.880Z,100.00
2023-03-11T07:32:21.969Z,100.00
2023-03-11T07:34:49.013Z,100.00
2023-03-11T07:37:16.419Z,100.00
2023-03-11T07:39:44.077Z,100.00
2023-03-11T07:42:11.096Z,100.00
2023-03-11T07:44:39.311Z,100.00
2023-03-11T07:47:06.800Z,100.00
2023-03-11T07:49:35.984Z,100.00
2023-03-11T07:52:03.460Z,100.00
2023-03-11T07:54:30.546Z,100.00
2023-03-11T07:56:57.610Z,100.00
2023-03-11T07:59:25.565Z,100.00
2023-03-11T08:01:52.543Z,100.00
2023-03-11T08:04:19.515Z,100.00
2023-03-11T08:06:47.763Z,100.00
2023-03-11T08:09:15.142Z,100.00
2023-03-11T08:11:43.005Z,100.00
2023-03-11T08:14:10.373Z,100.00
2023-03-11T08:16:40.463Z,100.00
2023-03-11T08:19:07.688Z,100.00
2023-03-11T08:21:34.840Z,100.00
2023-03-11T08:24:02.993Z,100.00
2023-03-11T08:26:31.975Z,100.00
2023-03-11T08:28:59.779Z,100.00
2023-03-11T08:31:30.850Z,100.00
2023-03-11T08:34:02.623Z,100.00
2023-03-11T08:36:30.538Z,100.00
2023-03-11T08:38:57.907Z,99.98
2023-03-11T08:41:25.711Z,97.99
2023-03-11T08:43:53.347Z,100.00
2023-03-11T08:46:39.529Z,100.00
2023-03-11T08:49:07.058Z,92.28
2023-03-11T08:51:35.352Z,97.81
2023-03-11T08:54:03.715Z,90.22
2023-03-11T08:56:31.297Z,90.17
2023-03-11T08:58:59.440Z,83.20
2023-03-11T09:01:26.895Z,79.13
2023-03-11T09:03:54.512Z,83.31
2023-03-11T09:06:22.224Z,83.19
2023-03-11T09:08:49.993Z,80.18
2023-03-11T09:11:18.560Z,79.71
2023-03-11T09:13:46.051Z,73.95
2023-03-11T09:16:15.674Z,70.93
2023-03-11T09:18:43.628Z,64.45
2023-03-11T09:21:11.434Z,72.13
2023-03-11T09:23:41.052Z,71.87
2023-03-11T09:26:09.604Z,64.05
2023-03-11T09:28:37.290Z,63.54
2023-03-11T09:31:04.887Z,66.62
2023-03-11T09:33:36.579Z,64.79
2023-03-11T09:36:04.508Z,74.21
2023-03-11T09:38:32.061Z,71.13
2023-03-11T09:41:18.114Z,73.48
2023-03-11T09:44:14.849Z,70.31
2023-03-11T09:46:55.793Z,61.19
2023-03-11T09:49:38.980Z,60.88
2023-03-11T09:52:11.267Z,60.20
2023-03-11T09:54:45.545Z,62.42
2023-03-11T09:57:18.279Z,56.84
2023-03-11T09:59:46.851Z,57.42
2023-03-11T10:02:19.727Z,52.45
2023-03-11T10:05:04.083Z,54.12
2023-03-11T10:07:37.221Z,51.54
2023-03-11T10:10:05.940Z,52.02
2023-03-11T10:12:44.440Z,56.96
2023-03-11T10:15:22.227Z,51.34
2023-03-11T10:18:28.840Z,45.14
2023-03-11T10:21:02.868Z,46.58
2023-03-11T10:24:03.853Z,47.04
2023-03-11T10:26:37.157Z,50.10
2023-03-11T10:29:52.170Z,48.63
2023-03-11T10:32:33.155Z,46.89
2023-03-11T10:35:16.093Z,45.10
2023-03-11T10:37:53.072Z,44.58
2023-03-11T10:40:26.859Z,43.34
2023-03-11T10:42:57.571Z,44.40
2023-03-11T10:45:25.753Z,44.67
2023-03-11T10:47:53.415Z,47.76
2023-03-11T10:50:21.044Z,48.15
2023-03-11T10:53:15.395Z,47.99
2023-03-11T10:55:49.032Z,50.49
2023-03-11T10:58:27.671Z,51.85
2023-03-11T11:01:15.044Z,48.92
2023-03-11T11:03:44.017Z,45.95
2023-03-11T11:06:21.735Z,45.60
2023-03-11T11:08:48.761Z,44.32
2023-03-11T11:11:24.115Z,44.67
2023-03-11T11:14:00.199Z,44.96
2023-03-11T11:16:29.031Z,45.30
2023-03-11T11:19:13.466Z,44.46
2023-03-11T11:21:48.745Z,43.77
2023-03-11T11:24:25.920Z,43.26
2023-03-11T11:27:11.832Z,43.26
2023-03-11T11:29:38.978Z,46.65
2023-03-11T11:32:15.150Z,43.94
2023-03-11T11:34:42.543Z,43.48
2023-03-11T11:37:14.419Z,42.02
2023-03-11T11:39:52.000Z,42.04
2023-03-11T11:42:20.265Z,41.97
2023-03-11T11:44:52.197Z,43.95
2023-03-11T11:47:24.886Z,46.57
2023-03-11T11:50:00.282Z,40.75
2023-03-11T11:52:40.809Z,40.76
2023-03-11T11:55:21.435Z,40.27
2023-03-11T11:57:48.921Z,40.73
2023-03-11T12:00:28.187Z,40.19
2023-03-11T12:03:25.525Z,42.33
2023-03-11T12:06:00.055Z,39.40
2023-03-11T12:09:04.453Z,39.56
2023-03-11T12:11:42.087Z,37.92
2023-03-11T12:14:26.537Z,39.87
2023-03-11T12:17:04.076Z,38.78
2023-03-11T12:19:56.334Z,36.84
2023-03-11T12:22:51.596Z,37.75
2023-03-11T12:25:25.519Z,37.60
2023-03-11T12:27:55.883Z,37.04
2023-03-11T12:30:30.281Z,37.32
2023-03-11T12:33:06.533Z,37.05
2023-03-11T12:35:36.034Z,36.77
2023-03-11T12:38:12.329Z,35.40
2023-03-11T12:40:45.149Z,36.85
2023-03-11T12:43:30.950Z,33.33
2023-03-11T12:46:01.218Z,30.26
2023-03-11T12:49:13.418Z,28.48
2023-03-11T12:51:41.690Z,28.48
2023-03-11T12:54:29.204Z,28.77
2023-03-11T12:57:21.140Z,27.27
2023-03-11T13:00:00.242Z,29.92
2023-03-11T13:02:48.514Z,26.32
2023-03-11T13:05:31.711Z,24.96
2023-03-11T13:08:14.864Z,26.12
2023-03-11T13:10:43.587Z,27.75
2023-03-11T13:13:42.109Z,27.71
2023-03-11T13:16:15.511Z,29.95
2023-03-11T13:18:48.674Z,29.17
2023-03-11T13:21:28.303Z,26.69
2023-03-11T13:24:21.915Z,25.42
2023-03-11T13:27:02.233Z,23.61
2023-03-11T13:29:54.749Z,23.39
2023-03-11T13:32:27.836Z,21.09
2023-03-11T13:35:22.246Z,21.76
2023-03-11T13:38:28.975Z,21.67
2023-03-11T13:40:56.141Z,21.07
2023-03-11T13:43:26.197Z,21.61
2023-03-11T13:46:08.795Z,19.87
2023-03-11T13:48:48.041Z,19.28
2023-03-11T13:51:27.979Z,20.71
2023-03-11T13:54:00.337Z,20.20
2023-03-11T13:56:33.491Z,21.16
2023-03-11T13:59:29.516Z,19.63
2023-03-11T14:02:11.957Z,20.18
2023-03-11T14:04:43.013Z,21.05
2023-03-11T14:07:20.153Z,20.85
2023-03-11T14:09:47.232Z,20.66
2023-03-11T14:12:17.401Z,21.92
2023-03-11T14:15:01.202Z,20.94
2023-03-11T14:17:28.216Z,20.08
2023-03-11T14:20:28.920Z,18.35
2023-03-11T14:22:56.852Z,19.40
2023-03-11T14:25:31.143Z,19.72
2023-03-11T14:28:04.089Z,19.33
2023-03-11T14:30:33.902Z,19.29
2023-03-11T14:33:24.884Z,19.79
2023-03-11T14:36:14.044Z,19.24
2023-03-11T14:38:44.291Z,19.23
2023-03-11T14:41:14.114Z,19.57
2023-03-11T14:43:46.397Z,19.65
2023-03-11T14:46:27.943Z,19.72
2023-03-11T14:48:58.152Z,20.84
2023-03-11T14:51:33.326Z,20.53
2023-03-11T14:54:21.483Z,21.54
2023-03-11T14:57:01.627Z,21.84
2023-03-11T14:59:34.603Z,24.17
2023-03-11T15:02:39.379Z,26.09
2023-03-11T15:05:26.907Z,24.85
2023-03-11T15:08:02.491Z,25.54
2023-03-11T15:10:29.803Z,26.22
2023-03-11T15:13:16.389Z,25.37
2023-03-11T15:15:43.615Z,25.65
2023-03-11T15:18:25.260Z,26.80
2023-03-11T15:21:21.648Z,26.53
2023-03-11T15:24:02.567Z,29.08
2023-03-11T15:26:33.352Z,31.74
2023-03-11T15:29:13.129Z,31.87
2023-03-11T15:31:42.506Z,31.63
2023-03-11T15:34:18.803Z,31.79
2023-03-11T15:36:48.888Z,31.60
2023-03-11T15:39:32.909Z,30.91
2023-03-11T15:42:01.944Z,31.93
2023-03-11T15:44:50.127Z,31.41
2023-03-11T15:47:21.086Z,32.02
2023-03-11T15:49:49.614Z,33.10
2023-03-11T15:52:19.286Z,33.15
2023-03-11T15:54:55.171Z,34.42
2023-03-11T15:57:27.812Z,35.47
2023-03-11T15:59:58.686Z,36.31
2023-03-11T16:02:31.871Z,36.65
2023-03-11T16:05:00.505Z,35.68
2023-03-11T16:07:39.023Z,37.00
2023-03-11T16:10:08.952Z,37.04
2023-03-11T16:12:38.801Z,36.94
2023-03-11T16:15:07.502Z,38.16
2023-03-11T16:17:48.961Z,39.59
2023-03-11T16:20:22.323Z,38.82
2023-03-11T16:22:53.492Z,39.65
2023-03-11T16:25:33.232Z,39.60
2023-03-11T16:28:03.750Z,42.54
2023-03-11T16:30:33.662Z,40.71
2023-03-11T16:33:04.005Z,40.68
2023-03-11T16:35:32.317Z,41.52
2023-03-11T16:37:59.478Z,41.79
2023-03-11T16:40:28.943Z,41.65
2023-03-11T16:43:02.794Z,42.55
2023-03-11T16:45:30.094Z,42.05
2023-03-11T16:47:57.784Z,43.60
2023-03-11T16:50:25.418Z,43.41
2023-03-11T16:52:54.624Z,43.78
2023-03-11T16:55:22.670Z,44.12
2023-03-11T16:57:49.795Z,44.36
2023-03-11T17:00:18.190Z,44.90
2023-03-11T17:02:45.560Z,45.04
2023-03-11T17:05:12.940Z,46.72
2023-03-11T17:07:40.372Z,44.54
2023-03-11T17:10:09.962Z,47.50
2023-03-11T17:12:37.524Z,44.82
2023-03-11T17:15:07.493Z,45.95
2023-03-11T17:17:34.842Z,45.25
2023-03-11T17:20:02.874Z,45.62
2023-03-11T17:22:29.985Z,47.20
2023-03-11T17:24:57.106Z,46.43
2023-03-11T17:27:24.262Z,46.55
2023-03-11T17:29:51.263Z,46.53
2023-03-11T17:32:19.891Z,47.30
2023-03-11T17:34:46.975Z,47.45
2023-03-11T17:37:14.489Z,48.33
2023-03-11T17:39:41.480Z,48.30
2023-03-11T17:42:08.618Z,50.85
2023-03-11T17:44:50.567Z,51.00
2023-03-11T17:47:19.555Z,61.23
2023-03-11T17:49:47.716Z,58.03
2023-03-11T17:52:14.838Z,55.06
2023-03-11T17:54:41.946Z,55.80
2023-03-11T17:57:09.043Z,56.52
2023-03-11T17:59:36.134Z,56.24
2023-03-11T18:02:03.504Z,57.85
2023-03-11T18:04:30.716Z,60.60
2023-03-11T18:06:57.756Z,60.41
2023-03-11T18:09:24.832Z,61.03
2023-03-11T18:11:51.919Z,58.32
2023-03-11T18:14:19.871Z,58.06
2023-03-11T18:16:47.124Z,59.28
2023-03-11T18:19:14.218Z,59.65
2023-03-11T18:21:41.459Z,61.27
2023-03-11T18:24:08.647Z,59.50
2023-03-11T18:26:35.757Z,63.20
2023-03-11T18:29:02.863Z,64.10
2023-03-11T18:31:30.940Z,63.36
2023-03-11T18:34:02.455Z,65.70
2023-03-11T18:36:36.630Z,69.35
2023-03-11T18:39:05.233Z,67.29
2023-03-11T18:41:35.472Z,67.63
2023-03-11T18:44:02.670Z,67.66
2023-03-11T18:46:32.379Z,71.65
2023-03-11T18:49:02.045Z,73.65
2023-03-11T18:51:32.130Z,78.82
2023-03-11T18:54:00.614Z,77.78
2023-03-11T18:56:30.937Z,81.34
2023-03-11T18:59:01.505Z,82.20
2023-03-11T19:01:29.230Z,82.76
2023-03-11T19:03:59.334Z,85.36
2023-03-11T19:06:28.268Z,84.85
2023-03-11T19:08:56.472Z,87.98
2023-03-11T19:11:25.500Z,88.82
2023-03-11T19:13:53.108Z,91.48
2023-03-11T19:16:24.266Z,91.60
2023-03-11T19:18:53.780Z,92.85
2023-03-11T19:21:21.854Z,95.44
2023-03-11T19:23:51.801Z,96.57
2023-03-11T19:26:18.902Z,97.42
2023-03-11T19:28:46.045Z,98.16
2023-03-11T19:31:13.488Z,100.00
2023-03-11T19:33:40.866Z,100.00
2023-03-11T19:36:09.454Z,100.00
2023-03-11T19:38:36.486Z,100.00
2023-03-11T19:41:18.512Z,100.00
2023-03-11T19:43:47.801Z,100.00
2023-03-11T19:46:20.767Z,100.00
2023-03-11T19:48:48.102Z,100.00
2023-03-11T19:51:17.124Z,100.00
2023-03-11T19:53:44.690Z,100.00
2023-03-11T19:56:11.936Z,100.00
2023-03-11T19:58:42.536Z,100.00
2023-03-11T20:01:20.512Z,100.00
2023-03-11T20:03:47.789Z,100.00
2023-03-11T20:06:18.331Z,100.00
2023-03-11T20:08:45.464Z,100.00
2023-03-11T20:11:12.922Z,100.00
2023-03-11T20:13:43.640Z,100.00
2023-03-11T20:16:18.604Z,100.00
2023-03-11T20:18:50.433Z,100.00
2023-03-11T20:21:17.637Z,100.00
2023-03-11T20:23:44.892Z,100.00
2023-03-11T20:26:14.587Z,100.00
2023-03-11T20:28:42.352Z,100.00
2023-03-11T20:31:22.105Z,100.00
2023-03-11T20:33:51.144Z,100.00
2023-03-11T20:36:25.325Z,100.00
2023-03-11T20:38:54.397Z,100.00
2023-03-11T20:41:23.434Z,100.00
2023-03-11T20:43:57.556Z,100.00
2023-03-11T20:46:25.060Z,100.00
2023-03-11T20:48:52.293Z,100.00
2023-03-11T20:51:20.517Z,100.00
2023-03-11T20:53:48.762Z,100.00
2023-03-11T20:56:22.858Z,100.00
2023-03-11T20:58:51.354Z,100.00
2023-03-11T21:01:26.131Z,100.00
2023-03-11T21:03:59.278Z,100.00
2023-03-11T21:06:33.344Z,100.00
2023-03-11T21:09:05.303Z,100.00
2023-03-11T21:11:33.054Z,100.00
2023-03-11T21:14:00.223Z,100.00
2023-03-11T21:16:28.184Z,100.00
2023-03-11T21:18:55.769Z,100.00
2023-03-11T21:21:23.116Z,100.00
2023-03-11T21:23:50.352Z,100.00
2023-03-11T21:26:18.076Z,100.00
2023-03-11T21:28:46.655Z,100.00
2023-03-11T21:31:21.324Z,100.00
2023-03-11T21:33:52.796Z,100.00
2023-03-11T21:36:19.912Z,100.00
2023-03-11T21:38:48.405Z,100.00
2023-03-11T21:41:18.198Z,100.00
2023-03-11T21:43:46.435Z,100.00
2023-03-11T21:46:17.390Z,100.00
2023-03-11T21:48:45.508Z,100.00
2023-03-11T21:51:13.580Z,100.00
2023-03-11T21:53:41.007Z,100.00
2023-03-11T21:56:08.502Z,100.00
2023-03-11T21:58:41.534Z,100.00
2023-03-11T22:01:10.072Z,100.00
2023-03-11T22:03:37.867Z,100.00
2023-03-11T22:06:11.618Z,100.00
2023-03-11T22:08:39.859Z,100.00
2023-03-11T22:11:14.017Z,100.00
2023-03-11T22:13:41.331Z,100.00
2023-03-11T22:16:08.866Z,100.00
2023-03-11T22:18:36.412Z,100.00
2023-03-11T22:21:04.191Z,100.00
2023-03-11T22:23:32.264Z,100.00
2023-03-11T22:25:59.508Z,100.00
2023-03-11T22:28:27.152Z,100.00
2023-03-11T22:30:54.739Z,100.00
2023-03-11T22:33:22.027Z,100.00
2023-03-11T22:35:56.097Z,100.00
2023-03-11T22:38:23.968Z,100.00
2023-03-11T22:40:51.596Z,100.00
2023-03-11T22:43:18.987Z,100.00
2023-03-11T22:45:46.717Z,100.00
2023-03-11T22:48:14.515Z,100.00
2023-03-11T22:50:44.574Z,100.00
2023-03-11T22:53:12.674Z,100.00
2023-03-11T22:55:41.446Z,100.00
2023-03-11T22:58:08.648Z,100.00
2023-03-11T23:00:37.546Z,100.00
2023-03-11T23:03:05.083Z,100.00
2023-03-11T23:05:35.979Z,100.00
2023-03-11T23:08:03.095Z,100.00
2023-03-11T23:10:30.144Z,100.00
2023-03-11T23:12:57.366Z,100.00
2023-03-11T23:15:24.518Z,100.00
2023-03-11T23:17:51.871Z,100.00
2023-03-11T23:20:19.031Z,100.00
2023-03-11T23:22:46.143Z,100.00
2023-03-11T23:25:16.717Z,100.00
2023-03-11T23:27:45.590Z,100.00
2023-03-11T23:30:16.538Z,100.00
2023-03-11T23:32:44.707Z,100.00
2023-03-11T23:35:13.104Z,100.00
2023-03-11T23:37:40.563Z,100.00
2023-03-11T23:40:09.725Z,100.00
2023-03-11T23:42:37.127Z,100.00
2023-03-11T23:45:06.109Z,100.00
2023-03-11T23:47:33.319Z,100.00
2023-03-11T23:50:00.374Z,100.00
2023-03-11T23:52:27.615Z,100.00
2023-03-11T23:54:55.815Z,100.00
2023-03-11T23:57:23.028Z,100.00
2023-03-11T23:59:50.235Z,100.00
